Time;durP1;ratioP1;P1;durP2;ratioP2;P2;SDS_P1;SDS_P2;PMS_P1;PMS_P2;Temp;Humidity;BMP_temperature;BMP_pressure;BME280_temperature;BME280_humidity;BME280_pressure;Samples;Min_cycle;Max_cycle;Signal;HPM_P1;HPM_P2
2022/11/07 00:00:57;;;;;;;5.68;3.03;;;;;;;8.19;83.58;100256.16;5997048;28;20404;-68
2022/11/07 00:03:53;;;;;;;6.55;3.15;;;;;;;8.22;83.50;100256.72;5998077;28;20336;-68
2022/11/07 00:06:49;;;;;;;6.18;3.08;;;;;;;8.25;83.45;100255.59;5998127;28;20035;-68
2022/11/07 00:09:44;;;;;;;7.53;3.03;;;;;;;8.30;83.77;100270.06;5998449;28;20062;-68
2022/11/07 00:12:39;;;;;;;5.30;2.43;;;;;;;8.29;83.74;100263.13;5998235;28;20053;-68
2022/11/07 00:15:35;;;;;;;6.43;3.00;;;;;;;8.30;83.97;100262.16;5998675;28;20077;-68
2022/11/07 00:18:30;;;;;;;6.57;3.03;;;;;;;8.41;83.83;100274.34;5997852;28;20443;-68
2022/11/07 00:21:25;;;;;;;5.70;2.90;;;;;;;8.36;84.07;100272.16;5997440;28;20027;-68
2022/11/07 00:24:21;;;;;;;5.30;2.80;;;;;;;8.35;84.19;100286.31;5997791;28;20732;-68
2022/11/07 00:27:16;;;;;;;8.40;3.80;;;;;;;8.31;84.66;100277.03;5998482;28;20394;-69
2022/11/07 00:30:12;;;;;;;8.17;2.50;;;;;;;8.28;84.35;100272.03;5997595;28;20311;-68
2022/11/07 00:33:07;;;;;;;7.95;3.20;;;;;;;8.40;84.54;100295.66;5998250;28;20277;-68
2022/11/07 00:36:03;;;;;;;7.07;2.87;;;;;;;8.37;84.59;100291.47;5997556;28;20537;-68
2022/11/07 00:38:58;;;;;;;6.22;2.85;;;;;;;8.28;84.71;100279.13;5999109;28;20129;-68
2022/11/07 00:41:54;;;;;;;5.43;2.72;;;;;;;8.45;84.82;100294.25;5998926;28;20186;-68
2022/11/07 00:44:50;;;;;;;7.73;2.97;;;;;;;8.46;84.42;100289.78;5998013;28;20031;-68
2022/11/07 00:47:45;;;;;;;6.38;2.67;;;;;;;8.45;84.58;100302.19;5998191;28;20031;-69
2022/11/07 00:50:41;;;;;;;5.10;2.53;;;;;;;8.53;84.81;100312.03;5997330;28;20454;-67
2022/11/07 00:53:36;;;;;;;5.07;2.47;;;;;;;8.43;84.74;100292.69;5996928;28;20118;-68
2022/11/07 00:56:32;;;;;;;7.22;2.50;;;;;;;8.51;84.85;100313.94;5998130;28;20037;-68
2022/11/07 00:59:27;;;;;;;6.57;2.53;;;;;;;8.65;84.77;100318.78;5997860;28;20037;-68
2022/11/07 01:02:22;;;;;;;4.30;2.25;;;;;;;8.67;84.32;100308.94;5997618;28;20027;-68
2022/11/07 01:05:18;;;;;;;5.63;2.60;;;;;;;8.80;83.86;100312.94;5998067;28;20041;-68
2022/11/07 01:08:13;;;;;;;5.53;2.30;;;;;;;8.90;83.62;100331.38;5997938;28;20042;-68
2022/11/07 01:11:08;;;;;;;3.83;2.00;;;;;;;8.88;83.49;100312.19;5997246;28;20035;-67
2022/11/07 01:14:05;;;;;;;5.20;2.70;;;;;;;8.93;83.40;100325.81;5997539;28;20090;-68
2022/11/07 01:17:00;;;;;;;4.35;2.15;;;;;;;8.87;83.51;100316.63;5997472;28;20031;-68
2022/11/07 01:19:55;;;;;;;4.38;1.98;;;;;;;8.90;83.45;100320.81;5987580;28;20486;-68
2022/11/07 01:22:51;;;;;;;4.03;1.90;;;;;;;8.98;83.70;100331.50;5997260;28;20077;-69
2022/11/07 01:25:46;;;;;;;5.00;2.33;;;;;;;9.06;83.29;100339.53;5998254;28;20222;-68
2022/11/07 01:28:41;;;;;;;4.57;2.40;;;;;;;9.03;83.26;100316.00;5997514;28;20563;-68
2022/11/07 01:31:37;;;;;;;4.05;2.20;;;;;;;9.12;83.37;100335.47;5999063;28;20035;-69
2022/11/07 01:34:32;;;;;;;5.60;2.37;;;;;;;9.15;83.38;100345.75;6001685;28;20030;-68
2022/11/07 01:37:27;;;;;;;4.37;2.10;;;;;;;9.08;83.16;100329.63;6001653;28;20115;-68
2022/11/07 01:40:23;;;;;;;4.00;1.93;;;;;;;9.25;82.91;100341.25;6000890;28;20818;-68
2022/11/07 01:43:18;;;;;;;4.07;2.05;;;;;;;9.10;83.33;100327.69;6000745;28;20038;-68
2022/11/07 01:46:14;;;;;;;4.10;2.13;;;;;;;9.15;83.36;100341.31;6001659;28;20102;-68
2022/11/07 01:49:11;;;;;;;4.88;1.85;;;;;;;9.16;83.41;100328.94;6001501;28;20205;-68
2022/11/07 01:52:09;;;;;;;4.88;2.03;;;;;;;9.12;83.38;100324.88;6000751;28;20062;-68
2022/11/07 01:55:21;;;;;;;5.07;2.30;;;;;;;9.18;83.20;100329.59;6001150;28;20034;-68
2022/11/07 01:58:16;;;;;;;5.60;1.90;;;;;;;9.16;83.61;100336.84;6000898;28;20042;-68
2022/11/07 02:01:12;;;;;;;4.95;1.83;;;;;;;9.19;83.55;100336.53;5998781;28;20049;-69
2022/11/07 02:04:07;;;;;;;4.97;2.40;;;;;;;9.19;83.62;100345.31;5999786;28;20042;-68
2022/11/07 02:07:21;;;;;;;4.82;2.10;;;;;;;9.05;83.90;100319.34;6001309;28;20039;-68
2022/11/07 02:10:17;;;;;;;5.78;1.75;;;;;;;9.18;83.77;100342.84;5999918;28;20554;-68
2022/11/07 02:13:17;;;;;;;4.72;2.17;;;;;;;9.19;83.61;100340.03;5999337;28;20058;-68
2022/11/07 02:16:13;;;;;;;3.63;1.70;;;;;;;9.16;83.70;100335.03;5999561;28;20467;-68
2022/11/07 02:19:23;;;;;;;7.10;2.90;;;;;;;9.15;84.13;100336.03;6001110;28;20085;-69
2022/11/07 02:22:42;;;;;;;4.53;2.10;;;;;;;9.16;84.38;100337.66;5998889;28;20353;-69
2022/11/07 02:25:38;;;;;;;3.97;1.95;;;;;;;9.20;83.96;100333.75;6000417;28;20027;-68
2022/11/07 02:28:34;;;;;;;5.72;2.17;;;;;;;9.34;83.55;100343.88;6000588;28;20066;-69
2022/11/07 02:31:30;;;;;;;3.72;1.88;;;;;;;9.37;83.54;100355.97;5999026;28;20042;-69
2022/11/07 02:34:25;;;;;;;4.53;2.30;;;;;;;9.37;83.52;100337.44;6000465;28;20031;-69
2022/11/07 02:37:30;;;;;;;5.40;1.93;;;;;;;9.32;83.48;100335.22;6000177;28;20102;-67
2022/11/07 02:40:26;;;;;;;4.65;1.88;;;;;;;9.34;83.53;100340.38;5999244;28;20455;-69
2022/11/07 02:43:23;;;;;;;3.72;1.70;;;;;;;9.35;83.38;100332.28;5999203;28;21132;-68
2022/11/07 02:46:19;;;;;;;4.38;1.73;;;;;;;9.42;83.36;100337.84;6000568;28;20029;-68
2022/11/07 02:49:14;;;;;;;3.67;1.50;;;;;;;9.48;82.97;100342.53;6000185;28;20141;-69
2022/11/07 02:52:10;;;;;;;4.87;1.70;;;;;;;9.46;83.22;100350.59;5999461;28;20043;-69
2022/11/07 02:55:06;;;;;;;4.40;1.73;;;;;;;9.55;83.04;100348.91;5986919;28;20031;-68
2022/11/07 02:58:02;;;;;;;3.00;1.50;;;;;;;9.51;82.77;100345.69;5999364;28;20042;-69
2022/11/07 03:01:05;;;;;;;4.70;1.80;;;;;;;9.61;82.81;100358.06;5999726;28;20387;-69
2022/11/07 03:04:01;;;;;;;2.95;1.70;;;;;;;9.60;82.96;100367.81;5999875;28;20636;-68
2022/11/07 03:06:56;;;;;;;3.40;1.90;;;;;;;9.63;83.05;100362.22;5999436;28;20042;-68
2022/11/07 03:09:51;;;;;;;4.23;1.53;;;;;;;9.58;82.96;100364.47;5999963;28;20023;-69
2022/11/07 03:12:46;;;;;;;4.77;2.00;;;;;;;9.59;83.01;100372.25;5998831;28;20089;-69
2022/11/07 03:15:42;;;;;;;3.20;1.57;;;;;;;9.62;83.32;100370.31;5999691;28;20054;-70
2022/11/07 03:18:37;;;;;;;5.00;1.77;;;;;;;9.56;83.17;100362.00;5999342;28;20039;-69
2022/11/07 03:21:32;;;;;;;5.67;1.63;;;;;;;9.61;83.13;100366.00;5998978;28;20233;-69
2022/11/07 03:24:28;;;;;;;3.53;1.50;;;;;;;9.64;83.54;100373.66;6000593;28;20031;-68
2022/11/07 03:27:23;;;;;;;2.72;1.50;;;;;;;9.66;83.42;100369.88;5999913;28;20356;-68
2022/11/07 03:30:18;;;;;;;4.40;1.53;;;;;;;9.56;83.42;100362.00;5998708;28;20049;-68
2022/11/07 03:33:14;;;;;;;7.87;1.60;;;;;;;9.63;83.54;100383.41;5999199;28;20037;-69
2022/11/07 03:36:09;;;;;;;3.90;1.70;;;;;;;9.64;83.66;100373.66;5999391;28;20037;-68
2022/11/07 03:39:04;;;;;;;4.17;1.67;;;;;;;9.69;82.96;100381.97;5993356;28;20038;-68
2022/11/07 03:42:00;;;;;;;11.20;1.60;;;;;;;9.76;82.88;100383.03;5992081;28;20069;-69
2022/11/07 03:44:55;;;;;;;3.30;1.30;;;;;;;9.67;82.75;100362.75;5999407;28;20031;-69
2022/11/07 03:47:51;;;;;;;7.07;1.58;;;;;;;9.74;82.97;100385.00;5999046;28;20117;-69
2022/11/07 03:50:47;;;;;;;4.57;1.47;;;;;;;9.77;82.76;100387.34;5998324;28;20043;-69
2022/11/07 03:53:42;;;;;;;3.80;1.50;;;;;;;9.69;83.03;100376.69;5998851;28;20078;-69
2022/11/07 03:56:37;;;;;;;3.70;1.60;;;;;;;9.73;82.85;100367.47;5998973;28;20031;-68
2022/11/07 03:59:32;;;;;;;3.47;1.40;;;;;;;9.76;82.54;100372.44;5999000;28;20105;-69
2022/11/07 04:02:28;;;;;;;2.97;1.80;;;;;;;9.82;83.02;100377.16;5998205;28;20935;-69
2022/11/07 04:05:23;;;;;;;8.70;2.70;;;;;;;9.79;83.34;100393.31;5998629;28;20066;-68
2022/11/07 04:08:18;;;;;;;3.07;1.47;;;;;;;9.73;83.31;100375.41;5998591;28;20045;-68
2022/11/07 04:17:17;;;;;;;4.57;1.47;;;;;;;9.79;83.16;100380.94;5998312;28;20058;-68
2022/11/07 04:17:43;;;;;;;3.30;1.17;;;;;;;9.89;82.73;100394.13;5997842;28;20035;-68
2022/11/07 04:20:38;;;;;;;6.93;1.40;;;;;;;9.90;82.75;100387.81;5997865;28;20043;-67
2022/11/07 04:23:33;;;;;;;3.07;1.57;;;;;;;9.90;82.79;100393.97;5998538;28;20124;-68
2022/11/07 04:29:43;;;;;;;2.60;1.25;;;;;;;9.84;82.98;100389.25;5997859;28;20626;-68
2022/11/07 04:32:38;;;;;;;2.80;1.27;;;;;;;9.86;83.16;100395.25;5998242;28;20038;-67
2022/11/07 04:35:33;;;;;;;3.37;1.17;;;;;;;9.88;82.95;100397.75;5998197;28;20145;-67
2022/11/07 04:38:29;;;;;;;2.27;1.20;;;;;;;9.82;83.17;100387.75;5997966;28;20034;-68
2022/11/07 04:41:25;;;;;;;2.20;1.33;;;;;;;9.85;82.90;100393.56;5997652;28;20038;-67
2022/11/07 04:44:21;;;;;;;5.60;1.35;;;;;;;9.88;83.13;100397.75;5997613;28;20027;-67
2022/11/07 04:47:16;;;;;;;2.65;1.30;;;;;;;9.85;83.33;100398.03;5996472;28;20485;-69
2022/11/07 04:50:16;;;;;;;2.95;1.30;;;;;;;9.89;83.04;100402.88;5997151;28;20435;-67
2022/11/07 04:53:13;;;;;;;3.33;1.65;;;;;;;9.91;83.25;100402.75;5998273;28;20026;-67
2022/11/07 04:56:09;;;;;;;3.58;1.50;;;;;;;9.79;83.33;100393.31;5998161;28;20043;-68
2022/11/07 04:59:04;;;;;;;2.90;1.10;;;;;;;9.88;83.34;100403.03;5998126;28;20031;-68
2022/11/07 05:02:01;;;;;;;2.17;1.10;;;;;;;9.78;83.55;100396.97;5990200;28;20067;-68
2022/11/07 05:04:56;;;;;;;3.10;1.10;;;;;;;9.81;83.50;100404.63;5997991;28;20105;-67
2022/11/07 05:07:51;;;;;;;3.57;1.47;;;;;;;9.78;83.74;100402.28;6001753;28;20035;-68
2022/11/07 05:10:46;;;;;;;3.93;1.50;;;;;;;9.64;84.01;100400.13;6001799;28;20054;-68
2022/11/07 05:13:42;;;;;;;3.70;1.70;;;;;;;9.59;84.75;100398.72;6001336;28;20030;-68
2022/11/07 05:16:38;;;;;;;6.17;1.30;;;;;;;9.53;84.60;100402.00;6002514;28;20030;-68
2022/11/07 05:19:33;;;;;;;3.47;1.65;;;;;;;9.56;85.28;100401.69;6002361;28;20117;-67
2022/11/07 05:25:50;;;;;;;3.67;1.40;;;;;;;9.35;85.62;100390.50;6000709;28;20031;-68
2022/11/07 05:28:46;;;;;;;5.57;1.80;;;;;;;9.39;86.03;100393.69;5992219;28;20039;-67
2022/11/07 05:31:41;;;;;;;3.97;1.63;;;;;;;9.38;85.99;100400.78;6001496;28;20031;-68
2022/11/07 05:34:36;;;;;;;3.60;1.33;;;;;;;9.29;86.06;100406.97;6001791;28;20071;-68
2022/11/07 05:37:32;;;;;;;2.90;1.60;;;;;;;9.25;86.54;100394.16;6001916;28;20374;-68
2022/11/07 05:40:27;;;;;;;4.17;1.50;;;;;;;9.23;86.68;100396.13;6000918;28;20038;-68
2022/11/07 05:43:23;;;;;;;6.97;1.70;;;;;;;9.26;86.92;100396.69;5990592;28;20039;-68
2022/11/07 05:46:18;;;;;;;6.15;2.42;;;;;;;9.16;88.31;100389.75;5993448;28;20483;-68
2022/11/07 05:49:14;;;;;;;2.88;1.30;;;;;;;9.04;89.25;100397.03;6001455;28;20034;-68
2022/11/07 05:52:09;;;;;;;3.70;1.73;;;;;;;8.98;90.24;100403.72;6000587;28;20532;-67
2022/11/07 05:55:05;;;;;;;5.63;1.83;;;;;;;8.85;90.36;100392.63;6001160;28;20273;-68
2022/11/07 05:58:10;;;;;;;2.95;1.40;;;;;;;9.05;89.85;100409.25;6001377;28;20034;-68
2022/11/07 06:01:05;;;;;;;3.80;1.50;;;;;;;9.07;89.77;100414.44;5991357;28;20035;-66
2022/11/07 06:04:04;;;;;;;3.25;1.23;;;;;;;9.14;89.64;100411.06;5985782;28;20065;-68
2022/11/07 06:07:00;;;;;;;2.72;1.30;;;;;;;9.22;89.03;100410.31;5997618;28;20085;-67
2022/11/07 06:09:55;;;;;;;1.90;1.30;;;;;;;9.16;88.69;100406.44;6001176;28;20526;-67
2022/11/07 06:12:58;;;;;;;1.97;1.07;;;;;;;9.25;88.52;100418.81;6001146;28;20266;-68
2022/11/07 06:15:54;;;;;;;3.53;1.30;;;;;;;9.26;88.23;100417.84;6000739;28;20430;-68
2022/11/07 06:18:49;;;;;;;4.07;1.23;;;;;;;9.28;87.97;100420.34;5999310;28;20122;-67
2022/11/07 06:21:44;;;;;;;4.00;1.80;;;;;;;9.34;87.77;100431.19;6000339;28;20159;-68
2022/11/07 06:24:40;;;;;;;6.83;1.60;;;;;;;9.40;87.38;100433.22;6000796;28;20101;-68
2022/11/07 06:27:35;;;;;;;3.85;1.30;;;;;;;9.31;87.71;100420.06;6000522;28;20081;-68
2022/11/07 06:30:30;;;;;;;2.45;1.00;;;;;;;9.34;87.77;100433.00;5999928;28;20030;-68
2022/11/07 06:33:26;;;;;;;3.35;1.30;;;;;;;9.19;88.03;100427.31;5999121;28;20039;-68
2022/11/07 06:36:21;;;;;;;6.20;1.30;;;;;;;9.25;88.18;100441.78;5992359;28;20539;-68
2022/11/07 06:39:18;;;;;;;3.55;1.45;;;;;;;9.26;88.51;100440.81;5999451;28;20039;-68
2022/11/07 06:42:13;;;;;;;4.20;1.23;;;;;;;9.29;88.65;100454.59;5993442;28;20089;-67
2022/11/07 06:45:10;;;;;;;3.57;1.47;;;;;;;9.34;88.25;100462.94;5996128;28;20035;-68
2022/11/07 06:48:06;;;;;;;2.85;1.55;;;;;;;9.31;88.12;100463.22;5994142;28;20042;-68
2022/11/07 06:51:02;;;;;;;2.25;1.33;;;;;;;9.15;88.48;100457.69;5988593;28;20030;-68
2022/11/07 06:53:58;;;;;;;5.35;1.58;;;;;;;9.17;89.09;100474.25;5999184;28;20038;-68
2022/11/07 06:56:53;;;;;;;3.53;1.50;;;;;;;9.09;89.71;100474.13;6000297;28;20043;-67
2022/11/07 06:59:49;;;;;;;4.00;1.40;;;;;;;9.05;89.45;100471.94;5999312;28;20129;-68
2022/11/07 07:02:45;;;;;;;3.22;1.23;;;;;;;9.10;89.37;100475.81;5999180;28;20056;-68
2022/11/07 07:05:40;;;;;;;3.93;1.30;;;;;;;9.02;89.75;100478.34;5999428;28;20107;-67
2022/11/07 07:08:36;;;;;;;3.43;1.47;;;;;;;9.09;90.08;100482.06;5999130;28;20019;-68
2022/11/07 07:11:34;;;;;;;3.97;1.10;;;;;;;9.19;89.86;100472.28;5999007;28;20459;-68
2022/11/07 07:14:30;;;;;;;5.97;1.15;;;;;;;9.23;89.22;100472.84;5999828;28;20121;-68
2022/11/07 07:17:25;;;;;;;3.93;1.40;;;;;;;9.37;88.74;100489.13;6000351;28;20041;-68
2022/11/07 07:20:20;;;;;;;4.93;1.30;;;;;;;9.41;88.55;100481.69;5999176;28;20038;-69
2022/11/07 07:23:19;;;;;;;4.57;2.78;;;;;;;9.58;88.04;100475.66;5999175;28;20071;-67
2022/11/07 07:26:15;;;;;;;3.40;1.30;;;;;;;9.71;87.73;100481.44;5998488;28;20037;-68
2022/11/07 07:29:10;;;;;;;7.25;2.03;;;;;;;9.77;87.01;100494.13;5998451;28;20035;-68
2022/11/07 07:32:06;;;;;;;2.07;1.37;;;;;;;9.86;86.99;100495.06;5998622;28;20031;-68
2022/11/07 07:35:01;;;;;;;3.27;1.50;;;;;;;9.80;86.46;100479.75;5998384;28;20614;-67
2022/11/07 07:37:57;;;;;;;3.97;1.45;;;;;;;9.93;86.60;100480.22;5998567;28;20459;-68
2022/11/07 07:40:52;;;;;;;3.40;1.05;;;;;;;9.99;86.06;100485.78;5998195;28;20077;-68
2022/11/07 07:43:47;;;;;;;3.80;1.40;;;;;;;10.15;85.67;100485.16;5999123;28;20162;-68
2022/11/07 07:46:42;;;;;;;2.60;1.00;;;;;;;10.35;84.71;100481.41;5998763;28;20265;-68
2022/11/07 07:49:38;;;;;;;2.33;1.10;;;;;;;10.51;84.04;100497.47;5997622;28;20281;-68
2022/11/07 07:52:33;;;;;;;6.75;1.17;;;;;;;10.60;83.07;100477.16;5998160;28;20078;-68
2022/11/07 07:55:29;;;;;;;4.30;1.85;;;;;;;10.67;82.43;100484.38;5998756;28;20038;-67
2022/11/07 07:58:25;;;;;;;3.53;1.30;;;;;;;10.80;82.53;100493.75;5988745;28;20062;-68
2022/11/07 08:01:29;;;;;;;3.33;1.13;;;;;;;10.73;82.78;100486.38;5996704;28;20027;-68
2022/11/07 08:04:24;;;;;;;4.78;1.50;;;;;;;10.72;82.56;100490.03;5997990;28;20034;-68
2022/11/07 08:07:20;;;;;;;2.13;0.90;;;;;;;10.85;82.38;100484.34;5997861;28;20479;-69
2022/11/07 08:10:17;;;;;;;2.90;1.20;;;;;;;10.94;82.06;100479.94;5997428;28;20730;-68
2022/11/07 08:13:12;;;;;;;3.65;1.00;;;;;;;11.23;80.92;100504.38;5997448;28;20031;-69
2022/11/07 08:16:08;;;;;;;1.90;1.10;;;;;;;11.45;79.90;100487.06;5989366;28;20086;-69
2022/11/07 08:19:03;;;;;;;5.15;1.20;;;;;;;11.44;79.83;100496.88;5998341;28;20035;-69
2022/11/07 08:21:59;;;;;;;3.03;1.10;;;;;;;11.31;80.09;100493.81;5998081;28;20034;-68
2022/11/07 08:24:54;;;;;;;3.10;1.20;;;;;;;11.24;80.26;100490.13;5998413;28;20038;-68
2022/11/07 08:27:51;;;;;;;4.30;1.00;;;;;;;11.24;80.32;100490.94;5998921;28;20466;-68
2022/11/07 08:31:02;;;;;;;4.03;1.20;;;;;;;11.23;80.28;100493.75;5993057;28;20032;-68
2022/11/07 08:33:58;;;;;;;3.13;1.05;;;;;;;11.31;80.00;100499.09;5991848;28;20027;-68
2022/11/07 08:36:54;;;;;;;3.17;1.23;;;;;;;11.38;80.02;100500.16;5998331;28;20050;-69
2022/11/07 08:39:49;;;;;;;5.33;1.00;;;;;;;11.48;79.80;100508.00;5987111;28;20453;-68
2022/11/07 08:42:44;;;;;;;3.80;1.00;;;;;;;11.36;79.60;100502.97;6001320;28;20534;-68
2022/11/07 08:45:40;;;;;;;3.60;1.13;;;;;;;11.31;80.25;100507.91;6002957;28;20463;-68
2022/11/07 08:48:35;;;;;;;6.53;1.40;;;;;;;11.33;80.04;100510.44;5994372;28;20046;-68
2022/11/07 08:51:31;;;;;;;4.97;1.20;;;;;;;11.45;80.33;100514.47;6002450;28;20058;-68
2022/11/07 08:54:29;;;;;;;3.92;1.42;;;;;;;11.48;79.95;100522.13;6002651;28;20378;-68
2022/11/07 08:57:25;;;;;;;3.58;1.52;;;;;;;11.49;79.99;100522.97;6004507;28;20390;-68
2022/11/07 09:00:20;;;;;;;3.63;1.60;;;;;;;11.54;79.98;100518.00;6001994;28;20039;-67
2022/11/07 09:03:15;;;;;;;4.20;1.00;;;;;;;11.65;80.00;100528.38;6002554;28;20113;-68
2022/11/07 09:06:11;;;;;;;5.13;1.30;;;;;;;11.77;79.67;100522.66;5997984;28;20626;-68
2022/11/07 09:09:06;;;;;;;3.08;1.20;;;;;;;11.82;78.57;100523.00;6002389;28;20114;-69
2022/11/07 09:12:01;;;;;;;4.43;1.50;;;;;;;11.67;78.98;100513.09;6001821;28;20134;-67
2022/11/07 09:14:57;;;;;;;4.43;1.20;;;;;;;11.63;79.46;100511.78;6001556;28;20034;-68
2022/11/07 09:17:52;;;;;;;3.07;1.23;;;;;;;11.78;79.60;100524.34;5999144;28;20027;-69
2022/11/07 09:20:49;;;;;;;4.53;1.40;;;;;;;11.80;79.56;100524.16;5998508;28;20101;-69
2022/11/07 09:23:44;;;;;;;3.92;1.50;;;;;;;11.76;79.15;100526.31;5991734;28;20122;-68
2022/11/07 09:26:40;;;;;;;3.93;1.47;;;;;;;11.71;79.29;100520.63;5988950;28;20422;-68
2022/11/07 09:29:35;;;;;;;4.97;1.53;;;;;;;11.68;79.58;100509.47;6001190;28;20035;-68
2022/11/07 09:32:30;;;;;;;5.03;1.40;;;;;;;11.72;79.84;100509.00;6000389;28;20116;-69
2022/11/07 09:35:26;;;;;;;4.35;1.42;;;;;;;11.79;79.68;100510.06;6002052;28;20058;-68
2022/11/07 09:38:21;;;;;;;8.05;2.00;;;;;;;11.99;79.03;100517.75;5995202;28;20081;-68
2022/11/07 09:41:46;;;;;;;4.17;1.20;;;;;;;12.12;78.60;100523.50;6001327;28;20034;-67
2022/11/07 09:44:52;;;;;;;8.38;1.30;;;;;;;12.13;77.94;100503.88;5998181;28;20140;-69
2022/11/07 09:47:58;;;;;;;4.43;1.40;;;;;;;12.29;77.44;100522.53;5988127;28;20074;-68
2022/11/07 09:50:53;;;;;;;5.30;1.27;;;;;;;12.51;77.35;100521.94;5991860;28;20596;-69
2022/11/07 09:53:52;;;;;;;4.70;1.37;;;;;;;12.35;77.30;100503.28;5995714;28;20035;-69
2022/11/07 09:56:48;;;;;;;3.45;1.10;;;;;;;12.47;77.09;100504.66;6001290;28;20031;-69
2022/11/07 09:59:52;;;;;;;4.47;2.38;;;;;;;12.60;76.58;100517.47;6001729;28;20111;-69
2022/11/07 10:02:55;;;;;;;4.10;1.30;;;;;;;12.65;77.31;100515.13;5997916;28;20061;-69
2022/11/07 10:06:13;;;;;;;3.90;1.30;;;;;;;12.63;76.59;100525.94;6000169;28;20039;-68
2022/11/07 10:09:17;;;;;;;3.45;1.00;;;;;;;12.66;76.25;100509.66;6001038;28;20083;-68
2022/11/07 10:12:36;;;;;;;6.88;1.17;;;;;;;12.81;75.76;100515.16;5991306;28;20783;-69
2022/11/07 10:15:49;;;;;;;4.57;1.27;;;;;;;12.90;75.64;100503.53;5999611;28;20098;-69
2022/11/07 10:18:57;;;;;;;;;;;;;;;13.19;74.28;100517.19;6001283;28;20394;-68
2022/11/07 10:21:58;;;;;;;5.10;1.30;;;;;;;13.20;74.72;100531.34;6014286;28;19925;-69
2022/11/07 10:25:00;;;;;;;4.95;1.33;;;;;;;13.16;74.87;100527.31;5999788;28;20114;-68
2022/11/07 10:28:17;;;;;;;6.85;1.60;;;;;;;13.33;73.58;100524.50;5994476;28;20038;-69
2022/11/07 10:31:13;;;;;;;4.65;1.30;;;;;;;13.35;73.15;100524.31;5996159;28;20030;-67
2022/11/07 10:34:16;;;;;;;4.07;0.98;;;;;;;13.19;73.94;100537.66;5998989;28;20656;-68
2022/11/07 10:37:12;;;;;;;3.70;1.17;;;;;;;13.34;74.00;100543.97;5999477;28;20035;-68
2022/11/07 10:40:17;;;;;;;3.83;0.97;;;;;;;13.38;72.53;100542.63;5999994;28;20066;-69
2022/11/07 10:43:24;;;;;;;9.50;1.55;;;;;;;13.35;73.30;100533.16;5998535;28;20386;-69
2022/11/07 10:46:25;;;;;;;5.20;1.40;;;;;;;13.40;72.89;100548.66;5986828;28;20510;-68
2022/11/07 10:49:21;;;;;;;2.03;0.88;;;;;;;13.21;73.10;100541.00;5999335;28;20027;-69
2022/11/07 10:52:18;;;;;;;4.32;1.00;;;;;;;13.35;73.61;100540.31;5999755;28;20066;-68
2022/11/07 10:55:15;;;;;;;4.70;1.20;;;;;;;13.37;73.64;100544.47;5998865;28;20046;-68
2022/11/07 10:58:33;;;;;;;4.30;1.02;;;;;;;13.24;73.34;100543.28;6000319;28;20092;-69
2022/11/07 11:01:28;;;;;;;7.47;1.85;;;;;;;13.16;73.42;100528.16;5987484;28;20038;-68
2022/11/07 11:04:31;;;;;;;8.55;2.22;;;;;;;13.14;74.36;100527.50;5999284;28;20041;-69
2022/11/07 11:07:38;;;;;;;4.38;1.00;;;;;;;13.04;74.11;100530.28;5999329;28;20027;-67
2022/11/07 11:10:37;;;;;;;4.28;1.45;;;;;;;13.03;74.80;100525.97;5999449;28;20360;-68
2022/11/07 11:13:33;;;;;;;8.73;2.78;;;;;;;12.94;75.02;100534.94;5996858;28;20089;-67
2022/11/07 11:16:30;;;;;;;6.68;1.77;;;;;;;13.04;75.31;100537.47;5997542;28;20450;-68
2022/11/07 11:19:28;;;;;;;7.88;1.63;;;;;;;12.85;75.42;100533.31;5991044;28;20394;-68
2022/11/07 11:22:24;;;;;;;5.82;1.58;;;;;;;12.88;76.43;100526.81;5996611;28;20035;-69
2022/11/07 11:25:20;;;;;;;4.32;1.48;;;;;;;12.99;76.10;100547.78;5998798;28;20146;-69
2022/11/07 11:28:44;;;;;;;3.47;1.20;;;;;;;13.12;75.26;100542.81;5998254;28;20062;-69
2022/11/07 11:31:48;;;;;;;9.05;1.40;;;;;;;13.06;74.60;100516.84;5991864;28;20418;-67
2022/11/07 11:34:58;;;;;;;4.28;1.17;;;;;;;13.17;74.06;100526.34;5976279;28;20118;-67
2022/11/07 11:37:59;;;;;;;3.90;0.93;;;;;;;13.33;73.69;100521.84;5998094;28;20118;-70
2022/11/07 11:41:07;;;;;;;6.95;1.55;;;;;;;13.51;73.50;100524.28;5997851;28;20735;-68
2022/11/07 11:44:41;;;;;;;5.88;0.95;;;;;;;13.47;73.23;100529.16;5998473;28;20517;-70
2022/11/07 11:47:40;;;;;;;5.13;1.25;;;;;;;13.25;73.27;100515.69;5992232;28;20617;-67
2022/11/07 11:50:42;;;;;;;4.35;0.90;;;;;;;13.39;73.44;100536.31;5993551;28;20493;-68
2022/11/07 11:53:37;;;;;;;4.32;1.00;;;;;;;13.41;73.60;100521.00;5996977;28;20037;-68
2022/11/07 11:56:42;;;;;;;2.70;1.10;;;;;;;13.56;74.06;100522.78;5998452;28;20501;-68
2022/11/07 11:59:49;;;;;;;6.93;1.00;;;;;;;13.80;72.65;100521.06;5998204;28;20034;-68
2022/11/07 12:02:47;;;;;;;3.92;1.00;;;;;;;13.69;72.53;100512.44;5995901;28;20689;-68
2022/11/07 12:06:14;;;;;;;2.08;0.98;;;;;;;13.90;72.27;100505.69;5994036;28;20035;-68
2022/11/07 12:09:43;;;;;;;4.88;1.20;;;;;;;14.04;71.59;100508.47;5987981;28;20467;-68
2022/11/07 12:13:00;;;;;;;5.55;1.88;;;;;;;14.14;71.22;100519.75;5988573;28;20058;-69
2022/11/07 12:16:10;;;;;;;3.78;1.10;;;;;;;14.12;71.60;100511.13;5998006;28;20031;-69
2022/11/07 12:19:14;;;;;;;6.63;1.23;;;;;;;14.23;71.28;100515.22;5987720;28;20031;-68
2022/11/07 12:22:43;;;;;;;5.20;1.20;;;;;;;14.20;70.86;100505.75;5995657;28;20026;-67
2022/11/07 12:25:45;;;;;;;4.38;1.10;;;;;;;14.31;71.80;100515.19;5996204;28;20066;-68
2022/11/07 12:29:02;;;;;;;3.17;1.00;;;;;;;14.44;71.08;100517.31;5995924;28;20614;-68
2022/11/07 12:32:04;;;;;;;3.65;0.93;;;;;;;14.49;70.91;100526.44;5995892;28;20445;-68
2022/11/07 12:35:24;;;;;;;4.45;1.20;;;;;;;14.60;70.69;100519.88;5998081;28;20038;-69
2022/11/07 12:38:28;;;;;;;5.88;1.10;;;;;;;14.70;70.45;100525.84;5998373;28;20078;-69
2022/11/07 12:41:43;;;;;;;3.15;0.80;;;;;;;14.71;70.46;100522.13;5975711;28;20089;-69
2022/11/07 12:45:16;;;;;;;1.75;0.75;;;;;;;14.62;70.06;100525.88;5990204;28;20090;-68
2022/11/07 12:48:57;;;;;;;6.18;1.40;;;;;;;14.57;70.39;100515.72;5988092;28;20035;-69
2022/11/07 12:52:20;;;;;;;2.67;1.17;;;;;;;14.68;70.09;100525.16;5988949;28;20078;-68
2022/11/07 12:55:24;;;;;;;3.58;1.17;;;;;;;14.59;70.65;100511.06;6004836;28;20034;-68
2022/11/07 12:58:22;;;;;;;6.97;2.22;;;;;;;14.65;70.55;100505.00;6002196;28;20062;-69
2022/11/07 13:01:23;;;;;;;5.43;1.23;;;;;;;14.74;70.32;100511.09;5995906;28;20034;-68
2022/11/07 13:04:33;;;;;;;5.18;1.00;;;;;;;14.54;71.00;100510.72;5996745;28;20367;-67
2022/11/07 13:07:49;;;;;;;3.95;1.20;;;;;;;14.38;71.74;100518.84;5998195;28;20110;-67
2022/11/07 13:10:50;;;;;;;3.60;1.33;;;;;;;14.21;71.90;100511.91;5997154;28;20073;-68
2022/11/07 13:14:07;;;;;;;3.25;0.85;;;;;;;14.03;72.78;100520.16;5990614;28;20038;-68
2022/11/07 13:17:11;;;;;;;3.83;1.00;;;;;;;13.98;73.57;100521.66;5997785;28;20042;-69
2022/11/07 13:20:19;;;;;;;7.60;2.55;;;;;;;13.97;73.56;100520.81;5995469;28;20046;-68
2022/11/07 13:23:15;;;;;;;8.13;2.35;;;;;;;13.85;73.22;100516.88;5995138;28;20386;-69
2022/11/07 13:26:11;;;;;;;6.72;2.03;;;;;;;13.81;73.71;100509.38;5998249;28;20035;-69
2022/11/07 13:29:23;;;;;;;8.77;1.10;;;;;;;13.82;73.14;100519.91;5996810;28;20114;-67
2022/11/07 13:32:18;;;;;;;4.97;1.10;;;;;;;13.82;73.26;100519.06;6001587;28;20266;-67
2022/11/07 13:35:26;;;;;;;2.03;1.10;;;;;;;13.82;73.82;100516.38;6001441;28;20046;-68
2022/11/07 13:38:23;;;;;;;7.35;1.30;;;;;;;13.90;73.68;100524.38;6002113;28;20031;-68
2022/11/07 13:41:18;;;;;;;3.90;1.00;;;;;;;13.92;73.54;100525.84;6000689;28;20037;-68
2022/11/07 13:44:31;;;;;;;4.55;1.48;;;;;;;14.01;73.89;100532.81;5999963;28;20639;-69
2022/11/07 13:47:34;;;;;;;3.85;1.27;;;;;;;13.99;74.08;100544.66;6000227;28;20475;-69
2022/11/07 13:50:41;;;;;;;4.97;2.45;;;;;;;13.77;77.07;100556.06;6002151;28;20436;-68
2022/11/07 13:53:41;;;;;;;4.88;1.23;;;;;;;13.46;79.39;100535.47;6001691;28;20046;-70
2022/11/07 13:57:05;;;;;;;5.68;1.20;;;;;;;13.43;79.71;100542.94;6000004;28;20545;-68
2022/11/07 14:00:09;;;;;;;6.07;1.55;;;;;;;13.35;79.73;100534.97;5999475;28;20043;-69
2022/11/07 14:03:05;;;;;;;4.07;1.42;;;;;;;13.29;79.63;100541.00;5990797;28;20391;-68
2022/11/07 14:06:01;;;;;;;4.82;1.42;;;;;;;13.34;80.16;100557.31;6000782;28;20043;-69
2022/11/07 14:08:57;;;;;;;5.47;1.90;;;;;;;13.37;80.28;100562.28;6000813;28;20066;-68